Time;durP1;ratioP1;P1;durP2;ratioP2;P2;SDS_P1;SDS_P2;PMS_P1;PMS_P2;Temp;Humidity;BMP_temperature;BMP_pressure;BME280_temperature;BME280_humidity;BME280_pressure;Samples;Min_cycle;Max_cycle;Signal;HPM_P1;HPM_P2
2021/05/11 00:01:25;;;;;;;2.15;1.13;;;;;;;19.91;53.66;94700.41;5011707;28;20219;-85
2021/05/11 00:03:52;;;;;;;1.70;0.90;;;;;;;19.74;53.61;94703.25;5015406;28;20852;-85
2021/05/11 00:06:17;;;;;;;1.25;0.98;;;;;;;19.74;53.61;94710.28;5015068;28;20218;-85
2021/05/11 00:08:43;;;;;;;2.00;0.98;;;;;;;19.79;53.43;94700.66;5015268;28;20629;-85
2021/05/11 00:11:09;;;;;;;1.35;1.08;;;;;;;19.67;54.02;94706.06;5003555;28;20198;-83
2021/05/11 00:13:35;;;;;;;1.73;1.10;;;;;;;19.69;53.75;94712.88;5011969;28;20210;-83
2021/05/11 00:16:01;;;;;;;2.70;1.10;;;;;;;19.58;53.86;94710.22;4997577;28;20580;-84
2021/05/11 00:18:28;;;;;;;2.53;1.00;;;;;;;19.54;54.24;94711.75;5005438;28;20221;-83
2021/05/11 00:20:54;;;;;;;1.77;1.00;;;;;;;19.57;53.55;94723.53;5008242;28;20214;-84
2021/05/11 00:23:20;;;;;;;2.08;0.90;;;;;;;19.51;53.74;94703.63;4992118;28;20290;-84
2021/05/11 00:25:46;;;;;;;1.05;0.95;;;;;;;19.58;53.74;94697.16;4999055;28;20685;-85
2021/05/11 00:28:12;;;;;;;0.80;0.80;;;;;;;19.56;53.84;94693.22;5012443;28;20749;-85
2021/05/11 00:30:38;;;;;;;0.80;0.80;;;;;;;19.59;53.60;94695.34;5003264;28;20206;-85
2021/05/11 00:33:05;;;;;;;0.98;0.98;;;;;;;19.58;53.77;94694.56;5011513;28;20206;-84
2021/05/11 00:35:31;;;;;;;0.80;0.80;;;;;;;19.54;53.46;94684.84;5009187;28;20600;-84
2021/05/11 00:37:57;;;;;;;1.13;1.02;;;;;;;19.51;53.68;94680.13;5011148;28;20206;-84
2021/05/11 00:40:23;;;;;;;1.13;1.00;;;;;;;19.41;53.85;94677.47;5011013;28;20615;-84
2021/05/11 00:42:49;;;;;;;1.33;0.90;;;;;;;19.43;54.29;94688.44;4994191;28;20230;-84
2021/05/11 00:45:15;;;;;;;1.13;1.02;;;;;;;19.41;53.72;94687.91;4997253;28;20190;-84
2021/05/11 00:47:41;;;;;;;2.67;1.00;;;;;;;19.35;54.25;94694.91;5003477;28;20484;-85
2021/05/11 00:50:08;;;;;;;0.90;0.90;;;;;;;19.32;53.97;94693.59;4994953;28;20218;-84
2021/05/11 00:52:36;;;;;;;1.13;0.90;;;;;;;19.31;53.97;94699.84;4993609;28;20792;-85
2021/05/11 00:55:03;;;;;;;1.17;0.82;;;;;;;19.21;54.16;94707.63;4993398;28;20653;-84
2021/05/11 00:57:30;;;;;;;1.17;1.02;;;;;;;19.23;54.21;94689.91;5011906;28;20219;-84
2021/05/11 00:59:58;;;;;;;0.80;0.80;;;;;;;19.16;55.02;94693.75;5011313;28;20206;-83
2021/05/11 01:02:25;;;;;;;2.35;1.10;;;;;;;19.21;54.16;94691.19;5004148;28;20226;-83
2021/05/11 01:04:51;;;;;;;0.90;0.90;;;;;;;19.23;54.00;94697.72;5009060;28;20195;-83
2021/05/11 01:07:17;;;;;;;1.25;1.05;;;;;;;19.18;54.49;94691.69;5010850;28;20284;-83
2021/05/11 01:09:43;;;;;;;1.52;0.90;;;;;;;19.12;54.64;94690.84;5010881;28;20218;-83
2021/05/11 01:12:09;;;;;;;2.15;0.90;;;;;;;19.07;54.43;94690.03;4996074;28;20191;-83
2021/05/11 01:14:35;;;;;;;1.13;0.93;;;;;;;19.05;54.82;94672.00;4997754;28;20211;-85
2021/05/11 01:17:02;;;;;;;1.95;0.90;;;;;;;19.04;55.07;94677.50;5009882;28;20310;-84
2021/05/11 01:19:39;;;;;;;2.00;1.10;;;;;;;19.07;54.75;94677.78;5011354;28;20211;-83
2021/05/11 01:22:21;;;;;;;2.17;0.85;;;;;;;19.09;54.91;94674.91;4997459;28;20218;-85
2021/05/11 01:24:49;;;;;;;1.13;1.02;;;;;;;19.11;54.34;94667.63;5009851;28;20242;-84
2021/05/11 01:27:26;;;;;;;2.55;0.90;;;;;;;19.12;54.38;94645.72;5011133;28;20223;-85
2021/05/11 01:30:00;;;;;;;1.05;1.00;;;;;;;19.05;54.37;94640.69;5009443;28;20199;-85
2021/05/11 01:32:46;;;;;;;1.02;1.00;;;;;;;18.99;54.92;94644.34;5011372;28;20834;-84
2021/05/11 01:43:57;;;;;;;1.80;0.90;;;;;;;18.82;55.33;94656.75;4949516;29;20584;-84
2021/05/11 01:49:14;;;;;;;4.45;1.00;;;;;;;18.56;56.21;94648.69;4986132;28;20208;-84
2021/05/11 01:51:53;;;;;;;1.25;1.00;;;;;;;18.59;55.83;94639.63;4991607;28;20202;-85
2021/05/11 01:54:44;;;;;;;1.88;1.00;;;;;;;18.50;56.38;94635.84;4992883;28;20199;-83
2021/05/11 02:24:40;;;;;;;0.80;0.80;;;;;;;18.26;56.95;94641.41;5007730;28;20282;-83
2021/05/11 02:27:07;;;;;;;1.30;0.85;;;;;;;18.17;57.50;94636.88;4990638;28;20250;-83
2021/05/11 02:29:33;;;;;;;2.55;1.00;;;;;;;18.15;57.36;94624.09;4997419;28;20198;-83
2021/05/11 02:31:59;;;;;;;0.95;0.90;;;;;;;18.17;57.28;94608.22;5010265;28;20245;-84
2021/05/11 02:34:25;;;;;;;2.00;0.95;;;;;;;18.17;57.37;94618.66;5009522;28;20211;-84
2021/05/11 02:36:51;;;;;;;1.30;0.90;;;;;;;18.20;57.16;94623.38;4991817;28;20329;-83
2021/05/11 02:39:17;;;;;;;2.90;0.90;;;;;;;18.18;56.93;94630.63;5008762;28;20206;-83
2021/05/11 02:41:44;;;;;;;0.90;0.90;;;;;;;18.13;57.08;94631.38;5010653;28;20270;-83
2021/05/11 02:44:14;;;;;;;1.17;0.93;;;;;;;18.12;57.69;94636.81;5006505;28;20218;-84
2021/05/11 02:46:40;;;;;;;0.80;0.80;;;;;;;18.13;57.09;94639.19;4998505;28;20214;-85
2021/05/11 02:49:07;;;;;;;1.30;0.88;;;;;;;18.15;57.13;94655.38;5009669;28;20838;-83
2021/05/11 02:51:33;;;;;;;2.30;0.80;;;;;;;18.11;57.02;94643.06;5004875;28;20219;-84
2021/05/11 02:53:59;;;;;;;0.80;0.80;;;;;;;17.97;58.25;94641.91;4990995;28;20214;-83
2021/05/11 02:56:24;;;;;;;1.65;0.98;;;;;;;18.01;57.72;94643.78;5011534;28;20268;-84
2021/05/11 02:58:51;;;;;;;1.10;1.00;;;;;;;17.88;58.38;94641.56;5011746;28;20207;-84
2021/05/11 03:01:17;;;;;;;1.05;0.90;;;;;;;17.85;58.40;94636.84;4994969;28;20222;-84
2021/05/11 03:03:43;;;;;;;1.73;0.90;;;;;;;17.89;57.66;94624.91;5011417;28;20202;-84
2021/05/11 03:06:10;;;;;;;0.88;0.88;;;;;;;17.88;58.45;94618.13;5010811;28;20284;-85
2021/05/11 03:08:37;;;;;;;0.75;0.75;;;;;;;17.90;58.25;94618.63;5011791;28;20199;-84
2021/05/11 03:11:03;;;;;;;2.90;0.80;;;;;;;17.91;57.98;94600.16;4991887;28;20610;-83
2021/05/11 03:13:29;;;;;;;1.10;1.00;;;;;;;17.93;58.03;94608.53;4991143;28;20207;-84
2021/05/11 03:15:54;;;;;;;1.25;0.90;;;;;;;17.84;58.33;94612.63;4990224;28;20315;-84
2021/05/11 03:18:21;;;;;;;2.03;1.05;;;;;;;17.86;58.09;94618.38;5000677;28;20203;-84
2021/05/11 03:20:48;;;;;;;2.00;0.90;;;;;;;17.88;58.12;94616.31;5002295;28;20203;-83
2021/05/11 03:23:14;;;;;;;1.00;0.90;;;;;;;17.84;58.15;94612.63;5004216;28;20223;-83
2021/05/11 03:25:40;;;;;;;1.05;1.00;;;;;;;17.83;58.36;94613.63;4993393;28;20706;-85
2021/05/11 03:28:06;;;;;;;2.08;1.00;;;;;;;17.82;57.86;94629.50;4996931;28;20192;-84
2021/05/11 03:30:32;;;;;;;1.30;0.90;;;;;;;17.77;58.24;94651.06;5004324;28;20682;-84
2021/05/11 03:32:58;;;;;;;2.53;0.90;;;;;;;17.71;58.52;94643.44;5012752;28;20690;-84
2021/05/11 03:35:24;;;;;;;0.90;0.90;;;;;;;17.65;58.64;94653.03;5013044;28;20234;-83
2021/05/11 03:37:52;;;;;;;1.17;1.10;;;;;;;17.61;58.66;94654.50;5008080;28;20293;-84
2021/05/11 03:40:21;;;;;;;1.10;1.10;;;;;;;17.58;59.09;94660.19;5013348;28;20199;-85
2021/05/11 03:42:52;;;;;;;1.85;1.00;;;;;;;17.57;59.15;94658.59;5009135;28;20215;-84
2021/05/11 03:45:19;;;;;;;2.47;0.93;;;;;;;17.55;59.15;94669.25;4993801;28;20250;-84
2021/05/11 03:47:48;;;;;;;1.27;0.93;;;;;;;17.55;59.15;94664.06;4998904;28;20224;-84
2021/05/11 03:50:16;;;;;;;0.80;0.80;;;;;;;17.51;59.25;94655.16;4994375;28;20195;-83
2021/05/11 03:52:43;;;;;;;2.70;1.20;;;;;;;17.51;58.89;94649.19;4998171;28;20199;-84
2021/05/11 03:55:10;;;;;;;1.52;1.30;;;;;;;17.50;59.36;94655.41;5011003;28;20203;-84
2021/05/11 03:57:36;;;;;;;2.22;1.13;;;;;;;17.52;59.14;94650.72;4992974;28;20274;-83
2021/05/11 04:00:03;;;;;;;1.85;0.93;;;;;;;17.53;59.04;94653.09;5000760;28;20206;-83
2021/05/11 04:02:29;;;;;;;1.77;1.10;;;;;;;17.52;58.99;94656.72;4999941;28;20223;-83
2021/05/11 04:04:55;;;;;;;3.20;1.08;;;;;;;17.52;59.18;94640.31;5005399;28;20203;-83
2021/05/11 04:07:21;;;;;;;1.00;0.90;;;;;;;17.51;58.97;94636.19;5013114;28;20322;-83
2021/05/11 04:09:51;;;;;;;1.35;0.90;;;;;;;17.49;59.11;94630.41;5005936;28;20203;-83
2021/05/11 04:12:39;;;;;;;1.63;1.05;;;;;;;17.42;59.24;94633.19;4992847;28;20207;-83
2021/05/11 04:17:50;;;;;;;1.10;1.00;;;;;;;17.34;59.62;94638.81;5012941;28;20225;-85
2021/05/11 04:20:16;;;;;;;1.55;1.00;;;;;;;17.32;59.91;94642.69;5001815;28;20196;-84
2021/05/11 04:22:42;;;;;;;36.47;32.45;;;;;;;17.31;59.83;94636.72;4993182;28;20273;-84
2021/05/11 04:25:10;;;;;;;12.38;11.18;;;;;;;17.32;59.77;94629.69;5000544;28;20698;-83
2021/05/11 04:27:36;;;;;;;9.07;2.22;;;;;;;17.29;59.95;94617.94;5012581;28;20222;-83
2021/05/11 04:30:04;;;;;;;2.20;1.42;;;;;;;17.32;60.04;94609.63;5010009;28;20262;-84
2021/05/11 04:32:30;;;;;;;3.45;1.35;;;;;;;17.31;60.33;94613.28;4992313;28;20639;-83
2021/05/11 04:34:56;;;;;;;4.22;1.50;;;;;;;17.36;60.00;94617.75;4997958;28;20203;-83
2021/05/11 04:37:22;;;;;;;3.80;1.40;;;;;;;17.25;60.15;94620.25;5011649;28;20889;-84
2021/05/11 04:39:48;;;;;;;3.33;1.20;;;;;;;17.20;60.08;94637.59;5006309;28;20202;-83
2021/05/11 04:42:15;;;;;;;1.20;1.10;;;;;;;17.18;60.20;94632.63;5012021;28;20226;-84
2021/05/11 04:44:41;;;;;;;1.40;1.30;;;;;;;17.08;61.05;94616.91;5004785;28;20233;-83
2021/05/11 04:47:11;;;;;;;1.90;1.20;;;;;;;17.11;60.48;94607.84;5009841;28;20253;-83
2021/05/11 04:49:37;;;;;;;2.88;1.27;;;;;;;17.17;60.69;94618.03;5002397;28;20199;-83
2021/05/11 04:52:05;;;;;;;1.38;1.27;;;;;;;17.16;60.38;94619.06;4995387;28;20198;-84
2021/05/11 04:54:30;;;;;;;9.00;8.07;;;;;;;17.21;60.20;94605.34;5000788;28;20195;-84
2021/05/11 04:56:56;;;;;;;3.08;2.20;;;;;;;17.19;60.55;94600.38;5004480;28;20272;-84
2021/05/11 04:59:24;;;;;;;2.92;1.50;;;;;;;17.32;60.34;94603.69;4997107;28;20211;-83
2021/05/11 05:01:52;;;;;;;2.15;1.30;;;;;;;17.46;59.69;94615.28;5011080;28;20218;-83
2021/05/11 05:04:18;;;;;;;1.40;1.30;;;;;;;17.46;59.56;94613.47;5010318;28;20282;-83
2021/05/11 05:06:45;;;;;;;3.00;1.52;;;;;;;17.49;59.54;94617.41;5009177;28;20226;-84
2021/05/11 05:09:11;;;;;;;1.55;1.40;;;;;;;17.54;59.33;94620.84;5009081;28;20207;-80
2021/05/11 05:11:40;;;;;;;1.85;1.60;;;;;;;17.57;59.27;94629.97;5005699;28;20214;-80
2021/05/11 05:14:06;;;;;;;2.92;1.48;;;;;;;17.45;59.61;94635.31;5011371;28;20202;-80
2021/05/11 05:16:34;;;;;;;4.55;1.48;;;;;;;17.60;59.21;94627.69;5001525;28;20243;-81
2021/05/11 05:19:00;;;;;;;1.23;1.02;;;;;;;17.65;59.35;94640.00;4992091;28;20620;-82
2021/05/11 05:21:26;;;;;;;2.25;1.20;;;;;;;17.68;59.19;94639.53;5005346;28;20209;-82
2021/05/11 05:24:01;;;;;;;2.35;1.30;;;;;;;17.68;59.38;94633.53;5011332;28;20199;-83
2021/05/11 05:26:29;;;;;;;1.50;1.40;;;;;;;17.76;58.86;94627.88;5010459;28;20222;-82
2021/05/11 05:28:56;;;;;;;1.70;1.60;;;;;;;17.85;58.79;94632.41;5004765;28;20199;-83
2021/05/11 05:31:22;;;;;;;2.58;1.27;;;;;;;17.96;58.96;94633.28;4998133;28;20253;-86
2021/05/11 05:33:49;;;;;;;2.00;1.60;;;;;;;17.89;59.00;94617.88;4997666;28;20658;-84
2021/05/11 05:36:15;;;;;;;4.32;1.25;;;;;;;18.03;58.57;94622.69;5003780;28;20218;-85
2021/05/11 05:38:42;;;;;;;4.70;1.63;;;;;;;18.09;58.49;94622.47;4995194;28;20203;-85
2021/05/11 05:41:10;;;;;;;1.90;1.50;;;;;;;18.17;58.19;94624.66;5002339;28;20284;-84
2021/05/11 05:43:36;;;;;;;3.70;1.65;;;;;;;18.28;57.80;94628.13;5010806;28;20265;-83
2021/05/11 05:46:03;;;;;;;2.13;1.50;;;;;;;18.34;57.86;94629.75;5000470;28;20739;-84
2021/05/11 05:48:29;;;;;;;2.85;1.27;;;;;;;18.44;57.62;94629.06;4992048;28;20211;-84
2021/05/11 05:50:59;;;;;;;2.75;1.55;;;;;;;18.50;57.52;94630.66;5000529;28;20199;-84
2021/05/11 05:53:28;;;;;;;2.50;1.35;;;;;;;18.50;57.51;94643.69;5012038;28;20551;-84
2021/05/11 05:55:54;;;;;;;5.07;1.35;;;;;;;18.49;57.61;94642.88;5008976;28;20734;-85
2021/05/11 05:58:20;;;;;;;2.15;1.20;;;;;;;18.37;58.02;94657.91;5011910;28;20203;-84
2021/05/11 06:00:47;;;;;;;1.42;1.20;;;;;;;18.42;57.63;94665.78;5004895;28;20202;-84
2021/05/11 06:06:01;;;;;;;1.55;1.40;;;;;;;18.36;57.42;94660.78;4996219;28;20230;-85
2021/05/11 06:08:28;;;;;;;3.05;1.40;;;;;;;18.22;58.34;94670.81;4991952;28;20239;-84
2021/05/11 06:10:58;;;;;;;1.60;1.50;;;;;;;18.28;57.72;94654.16;4992496;28;20192;-84
2021/05/11 06:13:29;;;;;;;3.92;1.80;;;;;;;18.32;57.49;94662.28;4991848;28;20207;-83
2021/05/11 06:18:39;;;;;;;1.58;1.30;;;;;;;18.50;57.60;94654.88;5010733;28;20652;-81
2021/05/11 06:21:06;;;;;;;1.45;1.35;;;;;;;18.39;57.60;94637.59;4995886;28;20196;-80
2021/05/11 06:23:32;;;;;;;1.30;1.20;;;;;;;18.23;58.14;94639.31;5005798;28;20227;-82
2021/05/11 06:25:58;;;;;;;2.05;1.33;;;;;;;18.22;58.32;94642.94;5009689;28;20229;-82
2021/05/11 06:28:25;;;;;;;1.33;1.23;;;;;;;18.24;58.26;94640.88;5011585;28;20558;-83
2021/05/11 06:30:51;;;;;;;1.40;1.30;;;;;;;18.28;58.02;94646.34;5011026;28;20207;-83
2021/05/11 06:33:17;;;;;;;3.17;1.38;;;;;;;18.34;58.30;94641.97;5006322;28;20202;-84
2021/05/11 06:35:43;;;;;;;2.15;1.20;;;;;;;18.35;57.96;94638.34;5006832;28;20687;-84
2021/05/11 06:38:10;;;;;;;1.30;1.20;;;;;;;18.42;58.32;94631.13;5007626;28;20207;-83
2021/05/11 06:40:38;;;;;;;5.25;1.10;;;;;;;18.39;58.74;94619.38;5006793;28;20715;-83
2021/05/11 06:43:04;;;;;;;3.72;1.38;;;;;;;18.30;59.16;94626.03;5004634;28;20223;-83
2021/05/11 06:48:12;;;;;;;3.85;1.48;;;;;;;18.37;58.42;94611.00;4983603;28;20281;-83
2021/05/11 06:52:40;;;;;;;1.40;1.27;;;;;;;18.35;59.43;94614.88;5003299;28;20203;-84
2021/05/11 06:53:34;;;;;;;1.95;1.55;;;;;;;18.40;58.76;94613.13;5004668;28;20217;-82
2021/05/11 06:56:00;;;;;;;1.40;1.30;;;;;;;18.21;59.71;94604.88;5008829;28;20219;-80
2021/05/11 06:58:27;;;;;;;2.55;1.52;;;;;;;18.20;59.39;94595.50;5006390;28;20196;-80
2021/05/11 07:00:53;;;;;;;1.65;1.45;;;;;;;18.17;59.48;94595.19;5016238;28;20577;-80
2021/05/11 07:03:19;;;;;;;3.15;1.30;;;;;;;18.07;60.41;94585.50;4998685;28;20237;-83
2021/05/11 07:05:47;;;;;;;1.85;1.52;;;;;;;17.94;60.41;94591.06;5006267;28;20208;-84
2021/05/11 07:08:15;;;;;;;1.40;1.30;;;;;;;18.09;60.13;94604.22;5014642;28;20238;-83
2021/05/11 07:10:47;;;;;;;4.43;1.55;;;;;;;17.85;60.54;94605.59;5014525;28;20207;-84
2021/05/11 07:13:14;;;;;;;2.03;1.35;;;;;;;17.84;60.45;94591.78;5013653;28;20199;-83
2021/05/11 07:15:55;;;;;;;1.70;1.30;;;;;;;17.92;60.21;94580.91;5014367;28;20562;-83
2021/05/11 07:18:23;;;;;;;2.20;1.30;;;;;;;18.04;60.07;94574.78;5006841;28;20202;-83
2021/05/11 07:20:57;;;;;;;3.15;1.67;;;;;;;18.00;59.90;94568.47;5014341;28;20662;-80
2021/05/11 07:23:28;;;;;;;2.75;1.63;;;;;;;18.00;59.49;94561.44;5011436;28;20230;-82
2021/05/11 07:26:06;;;;;;;2.88;1.65;;;;;;;17.87;60.18;94559.25;5001872;28;20232;-84
2021/05/11 07:28:46;;;;;;;6.90;1.80;;;;;;;17.88;60.12;94551.19;5014172;28;20253;-84
2021/05/11 07:31:15;;;;;;;3.67;1.45;;;;;;;18.15;60.00;94543.34;5015197;28;20199;-80
2021/05/11 07:33:46;;;;;;;3.35;1.58;;;;;;;18.03;59.72;94527.09;5012049;28;20296;-82
2021/05/11 07:36:15;;;;;;;1.63;1.50;;;;;;;18.09;59.71;94510.47;5014653;28;20593;-84
2021/05/11 07:38:45;;;;;;;2.50;1.77;;;;;;;18.09;59.72;94504.50;5015131;28;20195;-81
2021/05/11 07:41:16;;;;;;;2.67;1.90;;;;;;;18.04;60.03;94510.44;5015763;28;20207;-80
2021/05/11 07:43:49;;;;;;;2.80;1.73;;;;;;;17.98;60.24;94521.84;5009527;28;20288;-83
2021/05/11 08:03:12;;;;;;;2.20;1.85;;;;;;;18.23;60.34;94535.06;5013539;28;20310;-84
2021/05/11 08:05:50;;;;;;;4.57;1.80;;;;;;;18.32;60.63;94532.78;5013690;28;20694;-87
2021/05/11 08:16:39;;;;;;;1.60;1.50;;;;;;;18.50;60.27;94545.41;5013519;28;20237;-86
2021/05/11 08:19:11;;;;;;;6.40;1.80;;;;;;;18.48;60.84;94549.28;5013616;28;20203;-85
2021/05/11 08:21:59;;;;;;;2.00;1.70;;;;;;;18.50;60.07;94537.59;5014137;28;20214;-85
2021/05/11 08:27:31;;;;;;;2.30;1.70;;;;;;;18.56;59.64;94520.16;4994767;28;20225;-86
2021/05/11 08:29:58;;;;;;;2.20;1.90;;;;;;;18.48;59.65;94526.63;4995190;28;20734;-86
2021/05/11 08:32:26;;;;;;;5.35;1.90;;;;;;;18.54;60.22;94512.59;4993651;28;20207;-85
2021/05/11 08:34:55;;;;;;;2.55;1.50;;;;;;;18.63;59.72;94515.56;5010634;28;20207;-85
2021/05/11 08:37:24;;;;;;;2.15;1.70;;;;;;;18.59;60.23;94519.69;5012179;28;20760;-85
2021/05/11 08:39:54;;;;;;;6.10;1.80;;;;;;;18.77;59.54;94526.31;5007795;28;20666;-85
2021/05/11 08:42:20;;;;;;;2.13;1.75;;;;;;;18.73;59.48;94531.25;5014146;28;20301;-85
2021/05/11 08:44:46;;;;;;;3.95;1.73;;;;;;;18.58;60.07;94541.56;5013959;28;20669;-85
2021/05/11 08:47:18;;;;;;;2.13;1.85;;;;;;;18.47;60.15;94540.69;5014019;28;20616;-85
2021/05/11 08:49:44;;;;;;;4.72;1.60;;;;;;;18.49;60.99;94551.66;5013825;28;20210;-85
2021/05/11 08:52:23;;;;;;;4.68;1.70;;;;;;;18.54;60.98;94551.69;5013731;28;20265;-84
2021/05/11 09:08:53;;;;;;;2.35;1.90;;;;;;;18.54;60.40;94551.69;4990372;28;20199;-85
2021/05/11 09:14:40;;;;;;;2.40;2.20;;;;;;;18.66;60.60;94558.59;5012261;28;20324;-85
2021/05/11 09:25:40;;;;;;;3.20;2.00;;;;;;;18.92;60.40;94540.22;5011358;28;20275;-85
2021/05/11 09:28:32;;;;;;;2.38;2.08;;;;;;;18.97;59.83;94545.47;5012633;28;20218;-86
2021/05/11 09:31:13;;;;;;;4.05;2.20;;;;;;;18.85;59.94;94551.94;4996633;28;20235;-85
2021/05/11 09:33:47;;;;;;;3.72;2.30;;;;;;;18.87;60.59;94548.00;4992685;28;20699;-86
2021/05/11 09:45:19;;;;;;;3.78;2.55;;;;;;;18.99;59.90;94534.78;4997325;28;20246;-84
2021/05/11 09:56:27;;;;;;;2.67;2.47;;;;;;;19.10;59.66;94519.94;4971088;28;20250;-86
2021/05/11 09:59:18;;;;;;;4.75;2.60;;;;;;;19.26;59.52;94526.78;5012090;28;20207;-86
2021/05/11 10:48:18;;;;;;;3.08;2.20;;;;;;;19.60;59.42;94493.22;4976615;28;20229;-85
2021/05/11 10:50:50;;;;;;;2.67;2.47;;;;;;;19.58;59.04;94487.47;5004212;28;20206;-84
2021/05/11 10:54:00;;;;;;;4.25;2.38;;;;;;;19.65;58.65;94472.31;5012499;28;20293;-85
2021/05/11 10:56:52;;;;;;;4.85;2.55;;;;;;;19.50;59.11;94486.16;4988966;28;20231;-85
2021/05/11 11:02:26;;;;;;;4.75;2.33;;;;;;;19.53;58.93;94480.41;5010523;28;20225;-84
2021/05/11 11:05:29;;;;;;;2.88;2.67;;;;;;;19.30;58.81;94483.47;5003864;28;20618;-85
2021/05/11 11:07:55;;;;;;;4.35;2.50;;;;;;;19.42;58.98;94476.19;4993356;28;20230;-85
2021/05/11 11:10:29;;;;;;;3.15;2.42;;;;;;;19.53;60.04;94466.56;5002384;28;20199;-85
2021/05/11 11:12:56;;;;;;;4.15;2.60;;;;;;;19.59;59.48;94466.34;5011362;28;20231;-85
2021/05/11 11:15:24;;;;;;;4.63;2.83;;;;;;;19.60;58.97;94462.69;5000756;28;20703;-85
2021/05/11 11:17:53;;;;;;;4.18;2.50;;;;;;;19.66;58.58;94469.44;5000471;28;20230;-85
2021/05/11 11:20:28;;;;;;;11.50;10.43;;;;;;;19.72;58.60;94462.41;5003369;28;20226;-85
2021/05/11 11:26:07;;;;;;;4.93;2.72;;;;;;;19.96;58.11;94454.84;5000244;28;20237;-85
2021/05/11 11:28:33;;;;;;;3.30;3.00;;;;;;;20.04;57.55;94451.69;4993171;28;20208;-85
2021/05/11 11:31:00;;;;;;;2.92;2.63;;;;;;;20.17;57.13;94445.94;5003633;28;20274;-84
2021/05/11 11:33:26;;;;;;;4.18;3.05;;;;;;;20.19;57.42;94437.84;5012631;28;20199;-85
2021/05/11 11:35:52;;;;;;;3.65;2.17;;;;;;;20.18;57.75;94442.28;5001882;28;20647;-85
2021/05/11 11:38:27;;;;;;;4.15;2.22;;;;;;;20.24;57.34;94443.81;4991816;28;20683;-85
2021/05/11 11:41:00;;;;;;;4.65;2.50;;;;;;;20.25;56.96;94439.38;5000714;28;20546;-85
2021/05/11 11:43:28;;;;;;;2.70;2.50;;;;;;;20.28;57.30;94436.25;5012884;28;20833;-84
2021/05/11 11:45:54;;;;;;;4.65;2.40;;;;;;;20.23;57.09;94420.56;5007314;28;20204;-84
2021/05/11 11:48:23;;;;;;;5.93;2.33;;;;;;;20.28;57.45;94399.63;5014894;28;20211;-85
2021/05/11 11:50:54;;;;;;;4.13;2.50;;;;;;;20.19;58.03;94385.56;5007654;28;20203;-86
2021/05/11 11:53:22;;;;;;;3.10;2.50;;;;;;;20.19;58.57;94388.97;4995520;28;20200;-85
2021/05/11 11:58:32;;;;;;;2.65;2.15;;;;;;;20.35;57.31;94449.81;5001243;28;20226;-85
2021/05/11 12:00:58;;;;;;;4.10;2.80;;;;;;;20.40;57.04;94460.28;5006667;28;20946;-85
2021/05/11 12:03:26;;;;;;;4.43;2.75;;;;;;;20.33;56.87;94475.44;5012203;28;20234;-85
2021/05/11 12:05:54;;;;;;;5.18;2.55;;;;;;;20.34;56.84;94484.88;5012920;28;20586;-85
2021/05/11 12:08:21;;;;;;;7.10;2.70;;;;;;;20.37;57.31;94496.66;5011792;28;20290;-85
2021/05/11 12:10:50;;;;;;;3.20;2.90;;;;;;;20.34;57.74;94516.22;5010381;28;20207;-84
2021/05/11 12:13:20;;;;;;;7.78;2.30;;;;;;;20.39;57.66;94520.72;5014545;28;20238;-85
2021/05/11 12:16:06;;;;;;;9.75;8.75;;;;;;;20.40;57.26;94535.34;5011662;28;20222;-85
2021/05/11 12:18:34;;;;;;;8.73;7.57;;;;;;;20.41;57.64;94522.00;5011661;28;20272;-85
2021/05/11 12:21:01;;;;;;;10.85;4.22;;;;;;;20.55;57.25;94527.47;5005346;28;20841;-84
2021/05/11 12:23:27;;;;;;;4.85;3.50;;;;;;;20.58;56.80;94527.75;5009634;28;20246;-85
2021/05/11 12:25:57;;;;;;;3.85;3.50;;;;;;;20.53;56.83;94529.56;5012760;28;20230;-85
2021/05/11 12:28:30;;;;;;;3.85;3.55;;;;;;;20.57;55.75;94530.63;5012200;28;20199;-85
2021/05/11 12:30:56;;;;;;;5.97;3.15;;;;;;;20.58;56.29;94526.97;5009285;28;20265;-86
2021/05/11 12:33:31;;;;;;;4.97;2.97;;;;;;;20.68;55.78;94522.47;5012735;28;20662;-85
2021/05/11 12:36:02;;;;;;;3.55;2.83;;;;;;;20.79;56.05;94512.75;5012390;28;20207;-85
2021/05/11 12:38:30;;;;;;;4.75;2.95;;;;;;;20.88;56.05;94519.03;5008996;28;20214;-86
2021/05/11 12:41:03;;;;;;;4.43;2.88;;;;;;;20.94;56.08;94522.41;5012983;28;20270;-86
2021/05/11 12:43:44;;;;;;;3.53;3.20;;;;;;;21.04;56.74;94528.38;5012702;28;20222;-86
2021/05/11 12:46:20;;;;;;;3.47;3.10;;;;;;;21.11;56.44;94533.34;5007919;28;20231;-85
2021/05/11 12:48:56;;;;;;;8.10;3.13;;;;;;;21.19;56.34;94506.59;5013794;28;20290;-85
2021/05/11 12:51:31;;;;;;;5.78;3.30;;;;;;;21.26;56.18;94496.66;5012277;28;20739;-85
2021/05/11 12:53:58;;;;;;;3.35;3.03;;;;;;;21.23;56.97;94496.41;5006377;28;20221;-84
2021/05/11 12:56:38;;;;;;;4.00;3.58;;;;;;;21.23;56.85;94502.44;5010176;28;20226;-85
2021/05/11 12:59:11;;;;;;;3.30;3.05;;;;;;;21.26;57.17;94506.34;5013750;28;20219;-84
2021/05/11 13:01:52;;;;;;;5.30;3.60;;;;;;;21.35;55.86;94515.22;5009512;28;20346;-86
2021/05/11 13:15:48;;;;;;;3.28;3.05;;;;;;;21.03;55.23;94526.81;4995207;28;20823;-85
2021/05/11 13:21:16;;;;;;;3.58;3.28;;;;;;;20.95;56.02;94519.53;5012188;28;20202;-85
2021/05/11 13:26:31;;;;;;;3.28;3.00;;;;;;;20.95;56.47;94521.38;5000134;28;20241;-85
2021/05/11 13:29:00;;;;;;;4.45;2.83;;;;;;;20.93;56.93;94515.63;5011578;28;20253;-84
2021/05/11 13:31:30;;;;;;;3.50;3.20;;;;;;;20.91;56.32;94510.66;5012127;28;20480;-86
2021/05/11 13:34:08;;;;;;;3.63;3.33;;;;;;;20.92;56.58;94512.22;4997418;28;20203;-84
2021/05/11 13:36:34;;;;;;;5.10;3.50;;;;;;;20.81;56.66;94505.44;5003030;28;20222;-85
2021/05/11 13:39:02;;;;;;;6.03;3.45;;;;;;;20.89;56.54;94512.75;5007682;28;20234;-85
2021/05/11 13:41:28;;;;;;;4.32;3.92;;;;;;;20.85;57.48;94510.91;5011199;28;20206;-86
2021/05/11 13:43:54;;;;;;;5.35;4.30;;;;;;;20.73;57.78;94513.84;5004259;28;20740;-85
2021/05/11 13:46:20;;;;;;;5.57;5.15;;;;;;;20.62;57.93;94509.66;5008959;28;20219;-84
2021/05/11 13:48:47;;;;;;;4.57;4.18;;;;;;;20.57;58.09;94512.31;5001253;28;20251;-85
2021/05/11 13:51:15;;;;;;;4.72;4.20;;;;;;;20.56;58.28;94526.44;5000392;28;20198;-85
2021/05/11 13:53:43;;;;;;;4.82;4.50;;;;;;;20.41;58.45;94539.50;5006713;28;20209;-85
2021/05/11 13:56:19;;;;;;;4.43;4.13;;;;;;;20.35;58.58;94543.94;5007983;28;20222;-85
2021/05/11 14:04:13;;;;;;;6.40;4.38;;;;;;;20.35;58.69;94554.41;5008458;28;20581;-85
2021/05/11 14:06:42;;;;;;;5.32;4.60;;;;;;;20.40;59.54;94558.88;5011320;28;20229;-85
2021/05/11 14:09:08;;;;;;;4.93;4.53;;;;;;;20.41;60.20;94568.28;5000616;28;20684;-84
2021/05/11 14:11:36;;;;;;;5.45;4.95;;;;;;;20.42;59.49;94570.63;4992742;28;20231;-86
2021/05/11 14:14:04;;;;;;;10.52;4.93;;;;;;;20.51;58.55;94573.50;4999510;28;20237;-86
2021/05/11 14:16:33;;;;;;;6.68;4.63;;;;;;;20.51;57.82;94578.75;5005697;28;20262;-86
2021/05/11 14:18:59;;;;;;;5.95;4.38;;;;;;;20.56;57.73;94579.53;5004988;28;20241;-86
2021/05/11 14:21:25;;;;;;;5.05;4.60;;;;;;;20.52;58.33;94578.47;5011177;28;20264;-85
2021/05/11 14:23:53;;;;;;;4.90;4.50;;;;;;;20.53;58.00;94577.44;5004392;28;20838;-85
2021/05/11 14:26:19;;;;;;;7.55;3.95;;;;;;;20.64;57.92;94580.81;4992683;28;20242;-85
2021/05/11 14:28:46;;;;;;;4.03;3.63;;;;;;;20.69;57.70;94572.97;4997464;28;20749;-82
2021/05/11 14:31:12;;;;;;;4.20;3.65;;;;;;;20.75;57.70;94581.59;5012148;28;20213;-85
2021/05/11 14:33:39;;;;;;;4.15;3.20;;;;;;;20.77;57.10;94585.53;5008857;28;20393;-83
2021/05/11 14:36:07;;;;;;;4.47;3.40;;;;;;;20.69;57.51;94591.28;5011751;28;20227;-83
2021/05/11 14:38:33;;;;;;;4.32;3.90;;;;;;;20.64;58.04;94592.06;5009335;28;20211;-83
2021/05/11 14:41:02;;;;;;;3.97;3.60;;;;;;;20.66;57.53;94586.56;4993763;28;20203;-83
2021/05/11 14:43:30;;;;;;;15.48;4.13;;;;;;;20.58;57.94;94574.81;4998211;28;20321;-84
2021/05/11 14:45:58;;;;;;;4.78;3.80;;;;;;;20.59;58.20;94578.97;5011610;28;20203;-82
2021/05/11 14:48:24;;;;;;;6.28;3.45;;;;;;;20.58;58.18;94579.28;5010975;28;20378;-84
2021/05/11 14:50:50;;;;;;;4.00;3.28;;;;;;;20.65;57.82;94577.16;5008759;28;20195;-85
2021/05/11 14:53:16;;;;;;;4.53;3.60;;;;;;;20.64;58.21;94580.81;5000369;28;20206;-84
2021/05/11 14:55:45;;;;;;;4.32;3.38;;;;;;;20.61;58.00;94576.09;5010424;28;20202;-85
2021/05/11 14:58:11;;;;;;;3.67;3.33;;;;;;;20.56;58.35;94582.16;5010399;28;20616;-84
2021/05/11 15:00:37;;;;;;;6.03;4.88;;;;;;;20.56;58.37;94590.00;5012808;28;20206;-83
2021/05/11 15:03:04;;;;;;;4.93;4.53;;;;;;;20.52;59.20;94593.38;4999295;28;21088;-86